createdAt,value
2018-11-06T00:02:35.162Z,99712.78
2018-11-06T00:07:37.835Z,99714.61
2018-11-06T00:12:40.220Z,99710.48
2018-11-06T00:17:42.153Z,99704.88
2018-11-06T00:22:44.368Z,99710.09
2018-11-06T00:27:46.304Z,99710.42
2018-11-06T00:32:48.444Z,99706.00
2018-11-06T00:37:50.832Z,99714.53
2018-11-06T00:42:52.820Z,99708.81
2018-11-06T00:47:54.748Z,99710.52
2018-11-06T00:52:57.689Z,99718.09
2018-11-06T00:57:59.609Z,99715.64
2018-11-06T01:03:01.547Z,99720.15
2018-11-06T01:08:03.493Z,99716.75
2018-11-06T01:13:05.696Z,99717.50
2018-11-06T01:18:07.640Z,99721.05
2018-11-06T01:23:09.951Z,99731.98
2018-11-06T01:28:11.903Z,99737.58
2018-11-06T01:33:14.013Z,99730.12
2018-11-06T01:38:16.027Z,99727.84
2018-11-06T01:43:18.279Z,99722.67
2018-11-06T01:48:20.894Z,99725.03
2018-11-06T01:53:23.459Z,99720.53
2018-11-06T01:58:25.374Z,99717.20
2018-11-06T02:03:27.348Z,99715.64
2018-11-06T02:08:29.295Z,99714.66
2018-11-06T02:13:31.243Z,99707.06
2018-11-06T02:18:33.360Z,99715.52
2018-11-06T02:23:35.859Z,99712.05
2018-11-06T02:28:38.667Z,99707.83
2018-11-06T02:33:41.306Z,99705.19
2018-11-06T02:38:43.844Z,99708.30
2018-11-06T02:43:45.992Z,99711.50
2018-11-06T02:48:47.934Z,99716.16
2018-11-06T02:53:50.159Z,99715.73
2018-11-06T02:58:52.082Z,99716.75
2018-11-06T03:03:54.007Z,99719.44
2018-11-06T03:08:57.016Z,99734.78
2018-11-06T03:13:58.983Z,99744.67
2018-11-06T03:19:00.922Z,99748.41
2018-11-06T03:24:03.255Z,99751.61
2018-11-06T03:29:05.194Z,99760.36
2018-11-06T03:34:07.282Z,99758.37
2018-11-06T03:39:09.699Z,99770.59
2018-11-06T03:44:11.673Z,99768.40
2018-11-06T03:49:13.606Z,99766.20
2018-11-06T03:54:15.943Z,99767.73
2018-11-06T03:59:18.542Z,99772.45
2018-11-06T04:04:20.541Z,99775.48
2018-11-06T04:09:22.899Z,99773.36
2018-11-06T04:14:24.852Z,99777.86
2018-11-06T04:19:27.442Z,99779.56
2018-11-06T04:24:29.421Z,99768.87
2018-11-06T04:29:31.707Z,99767.18
2018-11-06T04:34:33.915Z,99758.66
2018-11-06T04:39:35.872Z,99774.59
2018-11-06T04:44:38.173Z,99771.57
2018-11-06T04:49:40.123Z,99771.08
2018-11-06T04:54:42.231Z,99776.30
2018-11-06T04:59:44.289Z,99783.51
2018-11-06T05:04:46.285Z,99786.20
2018-11-06T05:09:49.626Z,99779.52
2018-11-06T05:14:51.903Z,99769.78
2018-11-06T05:19:54.126Z,99774.47
2018-11-06T05:24:56.068Z,99771.80
2018-11-06T05:29:57.997Z,99773.12
2018-11-06T05:35:00.247Z,99787.05
2018-11-06T05:40:14.023Z,99783.20
2018-11-06T05:45:15.979Z,99781.35
2018-11-06T05:50:17.906Z,99784.52
2018-11-06T05:55:20.202Z,99785.02
2018-11-06T06:00:22.167Z,99786.53
2018-11-06T06:05:24.120Z,99780.69
2018-11-06T06:10:26.539Z,99782.69
2018-11-06T06:15:28.621Z,99787.41
2018-11-06T06:20:30.579Z,99779.70
2018-11-06T06:25:32.499Z,99772.23
2018-11-06T06:30:35.051Z,99779.34
2018-11-06T06:35:36.988Z,99770.28
2018-11-06T06:40:39.046Z,99779.10
2018-11-06T06:45:41.021Z,99784.56
2018-11-06T06:50:42.949Z,99792.45
2018-11-06T06:55:45.212Z,99793.26
2018-11-06T07:00:47.169Z,99796.64
2018-11-06T07:05:49.107Z,99796.76
2018-11-06T07:10:51.200Z,99810.55
2018-11-06T07:15:53.161Z,99824.45
2018-11-06T07:20:55.112Z,99828.50
2018-11-06T07:25:57.038Z,99837.30
2018-11-06T07:30:58.976Z,99843.88
2018-11-06T07:36:01.195Z,99857.98
2018-11-06T07:41:03.405Z,99865.48
2018-11-06T07:46:05.828Z,99865.95
2018-11-06T07:51:08.041Z,99868.27
2018-11-06T07:56:10.000Z,99866.63
2018-11-06T08:01:11.956Z,99876.41
2018-11-06T08:06:13.898Z,99878.75
2018-11-06T08:11:15.952Z,99884.47
2018-11-06T08:16:17.859Z,99885.02
2018-11-06T08:21:19.795Z,99885.82
2018-11-06T08:26:21.706Z,99884.38
2018-11-06T08:31:23.874Z,99880.56
2018-11-06T08:36:25.707Z,99882.70
2018-11-06T08:41:28.889Z,99879.27
2018-11-06T08:46:31.439Z,99885.55
2018-11-06T08:51:33.360Z,99874.28
2018-11-06T08:56:35.364Z,99877.30
2018-11-06T09:01:37.920Z,99877.58
2018-11-06T09:06:39.944Z,99882.50
2018-11-06T09:11:41.887Z,99877.05
2018-11-06T09:16:43.804Z,99881.61
2018-11-06T09:21:45.711Z,99877.75
2018-11-06T09:26:47.644Z,99872.11
2018-11-06T09:31:49.748Z,99871.33
2018-11-06T09:36:51.665Z,99870.73
2018-11-06T09:41:53.615Z,99877.42
2018-11-06T09:46:55.515Z,99870.70
2018-11-06T09:51:57.466Z,99873.36
2018-11-06T09:56:59.731Z,99870.23
2018-11-06T10:02:01.717Z,99867.16
2018-11-06T10:07:03.923Z,99867.27
2018-11-06T10:12:06.078Z,99857.50
2018-11-06T10:17:08.003Z,99860.61
2018-11-06T10:22:09.951Z,99852.52
2018-11-06T10:27:11.900Z,99847.33
2018-11-06T10:32:13.818Z,99854.31
2018-11-06T10:37:15.866Z,99848.83
2018-11-06T10:42:17.807Z,99843.50
2018-11-06T10:47:19.757Z,99843.89
2018-11-06T10:52:21.683Z,99837.09
2018-11-06T10:57:23.606Z,99835.00
2018-11-06T11:02:31.358Z,99822.08
2018-11-06T11:07:33.304Z,99824.39
2018-11-06T11:12:35.448Z,99822.19
2018-11-06T11:17:37.623Z,99818.17
2018-11-06T11:22:40.095Z,99811.66
2018-11-06T11:27:42.467Z,99816.19
2018-11-06T11:32:45.734Z,99798.78
2018-11-06T11:37:47.836Z,99803.89
2018-11-06T11:42:49.708Z,99800.02
2018-11-06T11:47:51.951Z,99793.15
2018-11-06T11:52:54.133Z,99785.87
2018-11-06T11:57:56.424Z,99791.92
2018-11-06T12:02:58.335Z,99792.66
2018-11-06T12:08:00.674Z,99780.86
2018-11-06T12:13:02.608Z,99777.20
2018-11-06T12:18:04.841Z,99775.19
2018-11-06T12:23:06.812Z,99775.09
2018-11-06T12:28:08.900Z,99784.69
2018-11-06T12:33:10.871Z,99769.25
2018-11-06T12:38:12.960Z,99765.02
2018-11-06T12:43:15.258Z,99757.36
2018-11-06T12:48:17.238Z,99759.09
2018-11-06T12:53:19.167Z,99750.97
2018-11-06T12:58:25.720Z,99741.78
2018-11-06T13:03:27.724Z,99735.84
2018-11-06T13:08:29.631Z,99744.41
2018-11-06T13:13:31.760Z,99743.22
2018-11-06T13:18:33.979Z,99746.62
2018-11-06T13:23:36.284Z,99750.94
2018-11-06T13:28:38.471Z,99739.41
2018-11-06T13:33:40.481Z,99742.53
2018-11-06T13:38:42.419Z,99731.12
2018-11-06T13:43:44.595Z,99724.55
2018-11-06T13:48:46.346Z,99720.55
2018-11-06T13:53:48.279Z,99711.83
2018-11-06T13:58:50.240Z,99716.66
2018-11-06T14:03:52.188Z,99713.85
2018-11-06T14:08:54.296Z,99713.36
2018-11-06T14:13:56.484Z,99718.53
2018-11-06T14:18:58.468Z,99722.77
2018-11-06T14:24:00.391Z,99720.11
2018-11-06T14:29:02.345Z,99734.23
2018-11-06T14:34:04.425Z,99733.41
2018-11-06T14:39:06.914Z,99732.30
2018-11-06T14:44:08.872Z,99734.45
2018-11-06T14:49:10.854Z,99727.72
2018-11-06T14:54:12.821Z,99720.12
2018-11-06T14:59:15.084Z,99728.95
2018-11-06T15:04:17.031Z,99727.55
2018-11-06T15:09:19.000Z,99715.78
2018-11-06T15:14:21.057Z,99728.39
2018-11-06T15:19:23.312Z,99720.33
2018-11-06T15:24:25.227Z,99725.43
2018-11-06T15:29:27.169Z,99727.40
2018-11-06T15:34:29.105Z,99717.57
2018-11-06T15:39:31.094Z,99714.20
2018-11-06T15:44:33.197Z,99714.62
2018-11-06T15:49:35.099Z,99717.42
2018-11-06T15:54:37.127Z,99716.05
2018-11-06T15:59:38.964Z,99717.20
2018-11-06T16:04:40.903Z,99716.22
2018-11-06T16:09:42.849Z,99720.99
2018-11-06T16:14:45.068Z,99722.70
2018-11-06T16:19:47.032Z,99725.08
2018-11-06T16:24:49.552Z,99720.50
2018-11-06T16:29:51.534Z,99729.55
2018-11-06T16:34:53.691Z,99740.44
2018-11-06T16:39:55.683Z,99735.66
2018-11-06T16:44:57.660Z,99734.55
2018-11-06T16:49:59.620Z,99736.48
2018-11-06T16:55:01.981Z,99737.69
2018-11-06T17:00:05.319Z,99736.44
2018-11-06T17:05:07.896Z,99736.89
2018-11-06T17:10:11.059Z,99744.61
2018-11-06T17:15:14.850Z,99749.84
2018-11-06T17:20:17.111Z,99745.80
2018-11-06T17:25:20.305Z,99733.23
2018-11-06T17:30:22.255Z,99736.22
2018-11-06T17:35:24.186Z,99728.40
2018-11-06T17:40:26.141Z,99722.75
2018-11-06T17:45:28.161Z,99731.53
2018-11-06T17:50:36.782Z,99734.98
2018-11-06T17:55:39.327Z,99731.52
2018-11-06T18:00:41.272Z,99734.22
2018-11-06T18:05:43.199Z,99730.56
2018-11-06T18:10:45.131Z,99728.13
2018-11-06T18:15:47.278Z,99728.19
2018-11-06T18:20:49.367Z,99727.12
2018-11-06T18:25:51.458Z,99724.95
2018-11-06T18:30:53.247Z,99722.89
2018-11-06T18:35:55.176Z,99718.71
2018-11-06T18:40:57.283Z,99724.91
2018-11-06T18:45:59.226Z,99726.83
2018-11-06T18:51:01.155Z,99724.75
2018-11-06T18:56:03.312Z,99729.45
2018-11-06T19:01:05.469Z,99726.14
2018-11-06T19:06:07.567Z,99730.23
2018-11-06T19:11:09.484Z,99728.69
2018-11-06T19:16:11.478Z,99737.53
2018-11-06T19:21:13.463Z,99734.37
2018-11-06T19:26:15.376Z,99736.70
2018-11-06T19:31:17.587Z,99734.97
2018-11-06T19:36:19.605Z,99726.44
2018-11-06T19:41:21.524Z,99729.88
2018-11-06T19:46:23.463Z,99736.03
2018-11-06T19:51:25.435Z,99739.11
2018-11-06T19:56:27.391Z,99742.24
2018-11-06T20:01:29.311Z,99745.11
2018-11-06T20:06:31.275Z,99743.62
2018-11-06T20:11:33.303Z,99737.08
2018-11-06T20:16:35.179Z,99748.26
2018-11-06T20:21:37.334Z,99744.87
2018-11-06T20:26:39.307Z,99753.74
2018-11-06T20:31:41.253Z,99748.89
2018-11-06T20:36:43.574Z,99752.41
2018-11-06T20:41:45.590Z,99744.87
2018-11-06T20:46:47.538Z,99740.47
2018-11-06T20:51:50.291Z,99739.44
2018-11-06T20:56:52.413Z,99747.64
2018-11-06T21:01:54.475Z,99745.40
2018-11-06T21:06:56.679Z,99751.01
2018-11-06T21:11:58.634Z,99752.59
2018-11-06T21:17:00.505Z,99739.69
2018-11-06T21:22:02.916Z,99735.06
2018-11-06T21:27:05.552Z,99730.52
2018-11-06T21:32:07.325Z,99740.42
2018-11-06T21:37:09.561Z,99740.30
2018-11-06T21:42:11.548Z,99739.83
2018-11-06T21:47:13.484Z,99735.48
2018-11-06T21:52:15.440Z,99735.25
2018-11-06T21:57:17.465Z,99724.88
2018-11-06T22:02:19.427Z,99732.09
2018-11-06T22:07:21.361Z,99728.17
2018-11-06T22:12:23.349Z,99737.23
2018-11-06T22:17:25.585Z,99735.55
2018-11-06T22:22:27.596Z,99733.38
2018-11-06T22:27:29.539Z,99728.33
2018-11-06T22:32:32.217Z,99730.02
2018-11-06T22:37:34.359Z,99736.95
2018-11-06T22:42:36.868Z,99742.17
2018-11-06T22:47:39.053Z,99758.98
2018-11-06T22:52:41.369Z,99763.69
2018-11-06T22:57:43.591Z,99759.32
2018-11-06T23:02:45.515Z,99766.09
2018-11-06T23:08:55.308Z,99758.74
2018-11-06T23:13:57.254Z,99742.20
2018-11-06T23:18:59.560Z,99746.73
2018-11-06T23:24:01.567Z,99761.44
2018-11-06T23:29:04.036Z,99760.27
2018-11-06T23:34:06.107Z,99757.61
2018-11-06T23:39:08.717Z,99749.90
2018-11-06T23:44:10.671Z,99751.27
2018-11-06T23:49:12.595Z,99750.29
2018-11-06T23:54:14.512Z,99745.08
2018-11-06T23:59:16.491Z,99745.11
